sensor_id;sensor_type;location;lat;lon;timestamp;P1;durP1;ratioP1;P2;durP2;ratioP2
46717;SDS011;32448;44.960;-0.698;2023-12-20T00:02:12;6.03;;;5.25;;
46717;SDS011;32448;44.960;-0.698;2023-12-20T00:04:39;10.10;;;6.72;;
46717;SDS011;32448;44.960;-0.698;2023-12-20T00:07:06;13.05;;;10.55;;
46717;SDS011;32448;44.960;-0.698;2023-12-20T00:09:33;9.90;;;6.90;;
46717;SDS011;32448;44.960;-0.698;2023-12-20T00:12:00;10.90;;;6.32;;
46717;SDS011;32448;44.960;-0.698;2023-12-20T00:14:27;7.88;;;5.30;;
46717;SDS011;32448;44.960;-0.698;2023-12-20T00:16:54;5.55;;;3.75;;
46717;SDS011;32448;44.960;-0.698;2023-12-20T00:19:21;5.13;;;2.85;;
46717;SDS011;32448;44.960;-0.698;2023-12-20T00:21:48;5.93;;;3.10;;
46717;SDS011;32448;44.960;-0.698;2023-12-20T00:24:14;4.60;;;2.85;;
46717;SDS011;32448;44.960;-0.698;2023-12-20T00:26:41;4.57;;;3.00;;
46717;SDS011;32448;44.960;-0.698;2023-12-20T00:29:08;2.97;;;1.83;;
46717;SDS011;32448;44.960;-0.698;2023-12-20T00:31:35;2.70;;;2.00;;
46717;SDS011;32448;44.960;-0.698;2023-12-20T00:34:02;6.00;;;2.78;;
46717;SDS011;32448;44.960;-0.698;2023-12-20T00:36:29;5.07;;;3.10;;
46717;SDS011;32448;44.960;-0.698;2023-12-20T00:38:56;7.80;;;3.10;;
46717;SDS011;32448;44.960;-0.698;2023-12-20T00:41:23;5.00;;;2.42;;
46717;SDS011;32448;44.960;-0.698;2023-12-20T00:43:50;5.95;;;1.90;;
46717;SDS011;32448;44.960;-0.698;2023-12-20T00:46:17;1.67;;;1.42;;
46717;SDS011;32448;44.960;-0.698;2023-12-20T00:48:44;1.40;;;1.30;;
46717;SDS011;32448;44.960;-0.698;2023-12-20T00:51:12;1.67;;;1.27;;
46717;SDS011;32448;44.960;-0.698;2023-12-20T00:53:38;7.45;;;1.58;;
46717;SDS011;32448;44.960;-0.698;2023-12-20T00:56:05;2.38;;;1.30;;
46717;SDS011;32448;44.960;-0.698;2023-12-20T00:58:32;5.10;;;1.42;;
46717;SDS011;32448;44.960;-0.698;2023-12-20T01:05:32;4.45;;;1.25;;
46717;SDS011;32448;44.960;-0.698;2023-12-20T01:08:18;2.60;;;1.20;;
46717;SDS011;32448;44.960;-0.698;2023-12-20T01:10:47;7.68;;;1.63;;
46717;SDS011;32448;44.960;-0.698;2023-12-20T01:13:16;4.13;;;1.50;;
46717;SDS011;32448;44.960;-0.698;2023-12-20T01:15:44;5.47;;;1.23;;
46717;SDS011;32448;44.960;-0.698;2023-12-20T01:21:25;2.92;;;0.93;;
46717;SDS011;32448;44.960;-0.698;2023-12-20T01:23:53;7.07;;;1.10;;
46717;SDS011;32448;44.960;-0.698;2023-12-20T01:26:19;8.75;;;1.60;;
46717;SDS011;32448;44.960;-0.698;2023-12-20T01:28:46;7.03;;;1.60;;
46717;SDS011;32448;44.960;-0.698;2023-12-20T01:31:13;6.32;;;1.77;;
46717;SDS011;32448;44.960;-0.698;2023-12-20T01:33:50;9.35;;;1.88;;
46717;SDS011;32448;44.960;-0.698;2023-12-20T01:36:18;7.25;;;1.80;;
46717;SDS011;32448;44.960;-0.698;2023-12-20T01:38:46;6.43;;;1.60;;
46717;SDS011;32448;44.960;-0.698;2023-12-20T01:41:13;8.38;;;1.98;;
46717;SDS011;32448;44.960;-0.698;2023-12-20T01:43:40;5.88;;;1.50;;
46717;SDS011;32448;44.960;-0.698;2023-12-20T01:46:16;3.15;;;1.40;;
46717;SDS011;32448;44.960;-0.698;2023-12-20T01:48:44;3.10;;;1.58;;
46717;SDS011;32448;44.960;-0.698;2023-12-20T01:51:11;5.80;;;1.80;;
46717;SDS011;32448;44.960;-0.698;2023-12-20T01:53:58;4.43;;;1.45;;
46717;SDS011;32448;44.960;-0.698;2023-12-20T01:56:42;6.03;;;1.13;;
46717;SDS011;32448;44.960;-0.698;2023-12-20T01:59:49;2.58;;;1.33;;
46717;SDS011;32448;44.960;-0.698;2023-12-20T02:02:22;4.78;;;1.40;;
46717;SDS011;32448;44.960;-0.698;2023-12-20T02:04:55;3.00;;;1.10;;
46717;SDS011;32448;44.960;-0.698;2023-12-20T02:07:39;3.65;;;1.20;;
46717;SDS011;32448;44.960;-0.698;2023-12-20T02:13:21;2.72;;;1.25;;
46717;SDS011;32448;44.960;-0.698;2023-12-20T02:16:03;1.92;;;1.27;;
46717;SDS011;32448;44.960;-0.698;2023-12-20T02:18:45;3.60;;;1.48;;
46717;SDS011;32448;44.960;-0.698;2023-12-20T02:21:24;2.35;;;1.25;;
46717;SDS011;32448;44.960;-0.698;2023-12-20T02:23:51;2.40;;;1.45;;
46717;SDS011;32448;44.960;-0.698;2023-12-20T02:26:22;2.88;;;1.05;;
46717;SDS011;32448;44.960;-0.698;2023-12-20T02:28:49;3.08;;;1.50;;
46717;SDS011;32448;44.960;-0.698;2023-12-20T02:31:16;2.72;;;1.50;;
46717;SDS011;32448;44.960;-0.698;2023-12-20T02:33:43;2.10;;;1.45;;
46717;SDS011;32448;44.960;-0.698;2023-12-20T02:36:10;3.90;;;1.60;;
46717;SDS011;32448;44.960;-0.698;2023-12-20T02:38:37;1.90;;;1.50;;
46717;SDS011;32448;44.960;-0.698;2023-12-20T02:41:04;2.13;;;1.30;;
46717;SDS011;32448;44.960;-0.698;2023-12-20T02:43:31;4.20;;;1.67;;
46717;SDS011;32448;44.960;-0.698;2023-12-20T02:46:05;5.80;;;2.58;;
46717;SDS011;32448;44.960;-0.698;2023-12-20T02:48:32;3.28;;;1.70;;
46717;SDS011;32448;44.960;-0.698;2023-12-20T02:51:00;6.50;;;1.73;;
46717;SDS011;32448;44.960;-0.698;2023-12-20T02:53:37;2.88;;;1.30;;
46717;SDS011;32448;44.960;-0.698;2023-12-20T02:56:04;2.65;;;1.90;;
46717;SDS011;32448;44.960;-0.698;2023-12-20T02:58:39;3.80;;;1.35;;
46717;SDS011;32448;44.960;-0.698;2023-12-20T03:01:09;2.38;;;1.38;;
46717;SDS011;32448;44.960;-0.698;2023-12-20T03:03:36;3.55;;;1.60;;
46717;SDS011;32448;44.960;-0.698;2023-12-20T03:06:03;3.00;;;1.70;;
46717;SDS011;32448;44.960;-0.698;2023-12-20T03:08:30;2.22;;;1.48;;
46717;SDS011;32448;44.960;-0.698;2023-12-20T03:10:59;4.75;;;1.50;;
46717;SDS011;32448;44.960;-0.698;2023-12-20T03:13:26;4.03;;;1.67;;
46717;SDS011;32448;44.960;-0.698;2023-12-20T03:15:52;4.40;;;1.98;;
46717;SDS011;32448;44.960;-0.698;2023-12-20T03:18:19;4.40;;;2.00;;
46717;SDS011;32448;44.960;-0.698;2023-12-20T03:20:46;3.85;;;1.75;;
46717;SDS011;32448;44.960;-0.698;2023-12-20T03:23:14;6.00;;;2.45;;
46717;SDS011;32448;44.960;-0.698;2023-12-20T03:25:41;4.70;;;1.67;;
46717;SDS011;32448;44.960;-0.698;2023-12-20T03:28:08;5.60;;;3.13;;
46717;SDS011;32448;44.960;-0.698;2023-12-20T03:30:35;8.55;;;2.15;;
46717;SDS011;32448;44.960;-0.698;2023-12-20T03:33:02;4.07;;;1.80;;
46717;SDS011;32448;44.960;-0.698;2023-12-20T03:35:29;3.97;;;1.88;;
46717;SDS011;32448;44.960;-0.698;2023-12-20T03:37:56;4.55;;;1.92;;
46717;SDS011;32448;44.960;-0.698;2023-12-20T03:40:23;5.55;;;2.10;;
46717;SDS011;32448;44.960;-0.698;2023-12-20T03:42:50;4.75;;;2.03;;
46717;SDS011;32448;44.960;-0.698;2023-12-20T03:45:17;6.35;;;1.60;;
46717;SDS011;32448;44.960;-0.698;2023-12-20T03:47:44;6.68;;;1.65;;
46717;SDS011;32448;44.960;-0.698;2023-12-20T03:50:11;8.85;;;1.90;;
46717;SDS011;32448;44.960;-0.698;2023-12-20T03:52:38;8.05;;;1.90;;
46717;SDS011;32448;44.960;-0.698;2023-12-20T03:55:05;9.98;;;2.03;;
46717;SDS011;32448;44.960;-0.698;2023-12-20T03:57:32;6.18;;;2.00;;
46717;SDS011;32448;44.960;-0.698;2023-12-20T03:59:59;9.30;;;1.92;;
46717;SDS011;32448;44.960;-0.698;2023-12-20T04:02:26;7.13;;;2.03;;
46717;SDS011;32448;44.960;-0.698;2023-12-20T04:04:53;13.55;;;1.70;;
46717;SDS011;32448;44.960;-0.698;2023-12-20T04:07:20;12.77;;;2.28;;
46717;SDS011;32448;44.960;-0.698;2023-12-20T04:09:47;10.40;;;1.80;;
46717;SDS011;32448;44.960;-0.698;2023-12-20T04:12:14;8.00;;;1.90;;
46717;SDS011;32448;44.960;-0.698;2023-12-20T04:14:41;9.48;;;1.85;;
46717;SDS011;32448;44.960;-0.698;2023-12-20T04:17:08;8.30;;;1.90;;
46717;SDS011;32448;44.960;-0.698;2023-12-20T04:19:35;10.65;;;2.15;;
46717;SDS011;32448;44.960;-0.698;2023-12-20T04:22:02;8.88;;;2.00;;
46717;SDS011;32448;44.960;-0.698;2023-12-20T04:24:29;12.15;;;2.20;;
46717;SDS011;32448;44.960;-0.698;2023-12-20T04:26:55;10.05;;;1.60;;
46717;SDS011;32448;44.960;-0.698;2023-12-20T04:29:22;13.52;;;1.95;;
46717;SDS011;32448;44.960;-0.698;2023-12-20T04:31:50;10.75;;;2.00;;
46717;SDS011;32448;44.960;-0.698;2023-12-20T04:34:18;11.40;;;1.70;;
46717;SDS011;32448;44.960;-0.698;2023-12-20T04:36:45;16.02;;;1.80;;
46717;SDS011;32448;44.960;-0.698;2023-12-20T04:39:12;11.18;;;1.45;;
46717;SDS011;32448;44.960;-0.698;2023-12-20T04:41:40;9.43;;;1.30;;
46717;SDS011;32448;44.960;-0.698;2023-12-20T04:44:07;10.60;;;2.20;;
46717;SDS011;32448;44.960;-0.698;2023-12-20T04:46:34;5.63;;;1.33;;
46717;SDS011;32448;44.960;-0.698;2023-12-20T04:49:01;8.55;;;1.50;;
46717;SDS011;32448;44.960;-0.698;2023-12-20T04:51:28;12.40;;;1.70;;
46717;SDS011;32448;44.960;-0.698;2023-12-20T04:53:55;10.10;;;1.77;;
46717;SDS011;32448;44.960;-0.698;2023-12-20T04:56:21;5.72;;;1.33;;
46717;SDS011;32448;44.960;-0.698;2023-12-20T04:58:48;15.48;;;1.77;;
46717;SDS011;32448;44.960;-0.698;2023-12-20T05:01:15;18.40;;;1.63;;
46717;SDS011;32448;44.960;-0.698;2023-12-20T05:03:42;10.35;;;1.80;;
46717;SDS011;32448;44.960;-0.698;2023-12-20T05:06:12;10.15;;;1.63;;
46717;SDS011;32448;44.960;-0.698;2023-12-20T05:08:39;9.73;;;1.20;;
46717;SDS011;32448;44.960;-0.698;2023-12-20T05:11:05;12.07;;;1.40;;
46717;SDS011;32448;44.960;-0.698;2023-12-20T05:13:33;12.48;;;1.55;;
46717;SDS011;32448;44.960;-0.698;2023-12-20T05:16:10;13.73;;;1.80;;
46717;SDS011;32448;44.960;-0.698;2023-12-20T05:18:38;9.48;;;1.70;;
46717;SDS011;32448;44.960;-0.698;2023-12-20T05:21:04;13.15;;;1.88;;
46717;SDS011;32448;44.960;-0.698;2023-12-20T05:23:31;12.95;;;1.38;;
46717;SDS011;32448;44.960;-0.698;2023-12-20T05:25:58;13.25;;;1.75;;
46717;SDS011;32448;44.960;-0.698;2023-12-20T05:28:25;14.30;;;1.67;;
46717;SDS011;32448;44.960;-0.698;2023-12-20T05:30:52;11.85;;;1.77;;
46717;SDS011;32448;44.960;-0.698;2023-12-20T05:33:20;13.43;;;1.60;;
46717;SDS011;32448;44.960;-0.698;2023-12-20T05:35:47;8.15;;;1.45;;
46717;SDS011;32448;44.960;-0.698;2023-12-20T05:38:14;7.30;;;1.38;;
46717;SDS011;32448;44.960;-0.698;2023-12-20T05:40:40;9.88;;;1.40;;
46717;SDS011;32448;44.960;-0.698;2023-12-20T05:43:07;10.07;;;1.70;;
46717;SDS011;32448;44.960;-0.698;2023-12-20T05:45:34;7.72;;;1.10;;
46717;SDS011;32448;44.960;-0.698;2023-12-20T05:48:01;9.00;;;1.23;;
46717;SDS011;32448;44.960;-0.698;2023-12-20T05:50:27;7.68;;;1.35;;
46717;SDS011;32448;44.960;-0.698;2023-12-20T05:52:54;11.73;;;1.55;;
46717;SDS011;32448;44.960;-0.698;2023-12-20T05:55:21;11.48;;;1.60;;
46717;SDS011;32448;44.960;-0.698;2023-12-20T05:57:49;8.88;;;1.50;;
46717;SDS011;32448;44.960;-0.698;2023-12-20T06:02:56;9.50;;;1.50;;
46717;SDS011;32448;44.960;-0.698;2023-12-20T06:05:23;11.25;;;1.95;;
46717;SDS011;32448;44.960;-0.698;2023-12-20T06:07:50;7.32;;;1.27;;
46717;SDS011;32448;44.960;-0.698;2023-12-20T06:10:17;16.00;;;1.75;;
46717;SDS011;32448;44.960;-0.698;2023-12-20T06:12:44;10.52;;;1.67;;
46717;SDS011;32448;44.960;-0.698;2023-12-20T06:15:14;9.98;;;1.40;;
46717;SDS011;32448;44.960;-0.698;2023-12-20T06:17:40;10.38;;;1.30;;
46717;SDS011;32448;44.960;-0.698;2023-12-20T06:20:08;12.85;;;1.83;;
46717;SDS011;32448;44.960;-0.698;2023-12-20T06:22:36;8.15;;;1.50;;
46717;SDS011;32448;44.960;-0.698;2023-12-20T06:25:03;13.60;;;2.30;;
46717;SDS011;32448;44.960;-0.698;2023-12-20T06:27:30;6.50;;;1.50;;
46717;SDS011;32448;44.960;-0.698;2023-12-20T06:29:59;7.05;;;1.15;;
46717;SDS011;32448;44.960;-0.698;2023-12-20T06:32:26;8.50;;;1.27;;
46717;SDS011;32448;44.960;-0.698;2023-12-20T06:34:52;16.60;;;2.03;;
46717;SDS011;32448;44.960;-0.698;2023-12-20T06:37:19;11.10;;;1.27;;
46717;SDS011;32448;44.960;-0.698;2023-12-20T06:39:50;10.55;;;1.20;;
46717;SDS011;32448;44.960;-0.698;2023-12-20T06:42:17;10.02;;;1.42;;
46717;SDS011;32448;44.960;-0.698;2023-12-20T06:44:44;7.82;;;1.40;;
46717;SDS011;32448;44.960;-0.698;2023-12-20T06:47:10;8.63;;;1.65;;
46717;SDS011;32448;44.960;-0.698;2023-12-20T06:49:40;9.52;;;1.50;;
46717;SDS011;32448;44.960;-0.698;2023-12-20T06:52:08;9.98;;;1.52;;
46717;SDS011;32448;44.960;-0.698;2023-12-20T06:54:36;8.80;;;1.40;;
46717;SDS011;32448;44.960;-0.698;2023-12-20T06:57:03;13.77;;;1.55;;
46717;SDS011;32448;44.960;-0.698;2023-12-20T06:59:31;13.50;;;1.42;;
46717;SDS011;32448;44.960;-0.698;2023-12-20T07:02:01;6.55;;;1.50;;
46717;SDS011;32448;44.960;-0.698;2023-12-20T07:04:28;8.13;;;1.45;;
46717;SDS011;32448;44.960;-0.698;2023-12-20T07:06:55;11.60;;;1.80;;
46717;SDS011;32448;44.960;-0.698;2023-12-20T07:09:24;13.65;;;2.78;;
46717;SDS011;32448;44.960;-0.698;2023-12-20T07:11:52;6.25;;;1.20;;
46717;SDS011;32448;44.960;-0.698;2023-12-20T07:14:21;13.23;;;2.05;;
46717;SDS011;32448;44.960;-0.698;2023-12-20T07:16:48;10.77;;;1.63;;
46717;SDS011;32448;44.960;-0.698;2023-12-20T07:19:14;3.75;;;1.13;;
46717;SDS011;32448;44.960;-0.698;2023-12-20T07:21:41;9.75;;;1.38;;
46717;SDS011;32448;44.960;-0.698;2023-12-20T07:24:08;8.70;;;1.10;;
46717;SDS011;32448;44.960;-0.698;2023-12-20T07:26:35;8.90;;;1.60;;
46717;SDS011;32448;44.960;-0.698;2023-12-20T07:29:04;10.93;;;1.25;;
46717;SDS011;32448;44.960;-0.698;2023-12-20T07:31:31;11.07;;;1.50;;
46717;SDS011;32448;44.960;-0.698;2023-12-20T07:33:57;11.40;;;1.92;;
46717;SDS011;32448;44.960;-0.698;2023-12-20T07:36:25;12.85;;;1.52;;
46717;SDS011;32448;44.960;-0.698;2023-12-20T07:38:52;10.18;;;1.63;;
46717;SDS011;32448;44.960;-0.698;2023-12-20T07:41:19;13.13;;;1.45;;
46717;SDS011;32448;44.960;-0.698;2023-12-20T07:43:47;8.10;;;1.70;;
46717;SDS011;32448;44.960;-0.698;2023-12-20T07:46:14;7.13;;;1.25;;
46717;SDS011;32448;44.960;-0.698;2023-12-20T07:48:41;8.50;;;1.30;;
46717;SDS011;32448;44.960;-0.698;2023-12-20T07:51:11;7.22;;;1.90;;
46717;SDS011;32448;44.960;-0.698;2023-12-20T07:53:38;9.68;;;1.30;;
46717;SDS011;32448;44.960;-0.698;2023-12-20T07:58:52;8.88;;;2.38;;
46717;SDS011;32448;44.960;-0.698;2023-12-20T08:01:20;11.65;;;2.20;;
46717;SDS011;32448;44.960;-0.698;2023-12-20T08:03:49;9.25;;;2.50;;
46717;SDS011;32448;44.960;-0.698;2023-12-20T08:06:16;7.70;;;2.55;;
46717;SDS011;32448;44.960;-0.698;2023-12-20T08:08:44;7.03;;;2.58;;
46717;SDS011;32448;44.960;-0.698;2023-12-20T08:11:11;7.22;;;2.08;;
46717;SDS011;32448;44.960;-0.698;2023-12-20T08:13:37;12.73;;;2.17;;
46717;SDS011;32448;44.960;-0.698;2023-12-20T08:16:05;10.23;;;1.67;;
46717;SDS011;32448;44.960;-0.698;2023-12-20T08:18:32;9.35;;;2.15;;
46717;SDS011;32448;44.960;-0.698;2023-12-20T08:20:59;5.43;;;1.83;;
46717;SDS011;32448;44.960;-0.698;2023-12-20T08:23:26;7.28;;;1.85;;
46717;SDS011;32448;44.960;-0.698;2023-12-20T08:25:55;3.75;;;1.70;;
46717;SDS011;32448;44.960;-0.698;2023-12-20T08:28:22;8.38;;;2.40;;
46717;SDS011;32448;44.960;-0.698;2023-12-20T08:30:49;11.57;;;2.45;;
46717;SDS011;32448;44.960;-0.698;2023-12-20T08:33:20;6.47;;;2.30;;
46717;SDS011;32448;44.960;-0.698;2023-12-20T08:35:47;17.85;;;2.20;;
46717;SDS011;32448;44.960;-0.698;2023-12-20T08:38:14;13.18;;;2.13;;
46717;SDS011;32448;44.960;-0.698;2023-12-20T08:40:41;12.90;;;2.20;;
46717;SDS011;32448;44.960;-0.698;2023-12-20T08:43:08;12.77;;;3.08;;
46717;SDS011;32448;44.960;-0.698;2023-12-20T08:45:35;9.00;;;1.92;;
46717;SDS011;32448;44.960;-0.698;2023-12-20T08:48:02;7.60;;;1.90;;
46717;SDS011;32448;44.960;-0.698;2023-12-20T08:50:33;10.05;;;2.03;;
46717;SDS011;32448;44.960;-0.698;2023-12-20T08:53:00;13.07;;;2.42;;
46717;SDS011;32448;44.960;-0.698;2023-12-20T08:55:27;9.05;;;2.20;;
46717;SDS011;32448;44.960;-0.698;2023-12-20T08:57:55;10.45;;;2.42;;
46717;SDS011;32448;44.960;-0.698;2023-12-20T09:00:22;10.63;;;2.08;;
46717;SDS011;32448;44.960;-0.698;2023-12-20T09:02:53;15.00;;;2.35;;
46717;SDS011;32448;44.960;-0.698;2023-12-20T09:05:21;10.13;;;1.60;;
46717;SDS011;32448;44.960;-0.698;2023-12-20T09:07:49;10.13;;;1.58;;
46717;SDS011;32448;44.960;-0.698;2023-12-20T09:10:16;12.98;;;1.95;;
46717;SDS011;32448;44.960;-0.698;2023-12-20T09:12:49;12.02;;;1.67;;
46717;SDS011;32448;44.960;-0.698;2023-12-20T09:15:17;10.52;;;1.70;;
46717;SDS011;32448;44.960;-0.698;2023-12-20T09:17:44;15.93;;;2.08;;
46717;SDS011;32448;44.960;-0.698;2023-12-20T09:20:11;7.63;;;1.63;;
46717;SDS011;32448;44.960;-0.698;2023-12-20T09:22:40;11.35;;;2.40;;
46717;SDS011;32448;44.960;-0.698;2023-12-20T09:25:09;16.52;;;2.30;;
46717;SDS011;32448;44.960;-0.698;2023-12-20T09:27:37;14.32;;;2.42;;
46717;SDS011;32448;44.960;-0.698;2023-12-20T09:30:04;12.95;;;2.08;;
46717;SDS011;32448;44.960;-0.698;2023-12-20T09:32:32;11.77;;;1.77;;
46717;SDS011;32448;44.960;-0.698;2023-12-20T09:34:58;18.52;;;1.63;;
46717;SDS011;32448;44.960;-0.698;2023-12-20T09:37:26;10.93;;;1.90;;
46717;SDS011;32448;44.960;-0.698;2023-12-20T09:39:54;16.70;;;1.70;;
46717;SDS011;32448;44.960;-0.698;2023-12-20T09:42:24;11.95;;;2.17;;
46717;SDS011;32448;44.960;-0.698;2023-12-20T09:44:58;13.55;;;1.90;;
46717;SDS011;32448;44.960;-0.698;2023-12-20T09:47:29;14.27;;;1.92;;
46717;SDS011;32448;44.960;-0.698;2023-12-20T09:49:56;12.88;;;2.10;;
46717;SDS011;32448;44.960;-0.698;2023-12-20T09:52:23;12.23;;;1.60;;
46717;SDS011;32448;44.960;-0.698;2023-12-20T09:54:51;12.13;;;1.90;;
46717;SDS011;32448;44.960;-0.698;2023-12-20T09:57:19;13.45;;;2.25;;
46717;SDS011;32448;44.960;-0.698;2023-12-20T09:59:46;10.32;;;1.50;;
46717;SDS011;32448;44.960;-0.698;2023-12-20T10:02:13;9.60;;;1.95;;
46717;SDS011;32448;44.960;-0.698;2023-12-20T10:04:47;11.00;;;1.77;;
46717;SDS011;32448;44.960;-0.698;2023-12-20T10:07:15;13.40;;;2.13;;
46717;SDS011;32448;44.960;-0.698;2023-12-20T10:09:42;13.32;;;1.92;;
46717;SDS011;32448;44.960;-0.698;2023-12-20T10:12:09;8.77;;;1.40;;
46717;SDS011;32448;44.960;-0.698;2023-12-20T10:14:37;14.68;;;2.47;;
46717;SDS011;32448;44.960;-0.698;2023-12-20T10:17:05;10.18;;;1.63;;
46717;SDS011;32448;44.960;-0.698;2023-12-20T10:19:34;10.82;;;1.60;;
46717;SDS011;32448;44.960;-0.698;2023-12-20T10:22:04;10.90;;;1.92;;
46717;SDS011;32448;44.960;-0.698;2023-12-20T10:24:31;9.15;;;1.55;;
46717;SDS011;32448;44.960;-0.698;2023-12-20T10:27:02;8.15;;;1.58;;
46717;SDS011;32448;44.960;-0.698;2023-12-20T10:29:34;7.10;;;1.30;;
46717;SDS011;32448;44.960;-0.698;2023-12-20T10:32:23;11.68;;;1.85;;
46717;SDS011;32448;44.960;-0.698;2023-12-20T10:34:53;9.48;;;2.08;;
46717;SDS011;32448;44.960;-0.698;2023-12-20T10:37:21;6.22;;;1.35;;
46717;SDS011;32448;44.960;-0.698;2023-12-20T10:39:52;11.55;;;3.35;;
46717;SDS011;32448;44.960;-0.698;2023-12-20T10:42:26;11.40;;;1.85;;
46717;SDS011;32448;44.960;-0.698;2023-12-20T10:44:53;13.18;;;2.20;;
46717;SDS011;32448;44.960;-0.698;2023-12-20T10:47:20;10.27;;;2.20;;
46717;SDS011;32448;44.960;-0.698;2023-12-20T10:49:47;12.32;;;1.80;;
46717;SDS011;32448;44.960;-0.698;2023-12-20T10:52:15;14.55;;;2.00;;
46717;SDS011;32448;44.960;-0.698;2023-12-20T10:54:44;13.35;;;2.05;;
46717;SDS011;32448;44.960;-0.698;2023-12-20T10:57:11;14.68;;;4.57;;
46717;SDS011;32448;44.960;-0.698;2023-12-20T10:59:38;9.60;;;2.30;;
46717;SDS011;32448;44.960;-0.698;2023-12-20T11:02:06;11.02;;;3.15;;
46717;SDS011;32448;44.960;-0.698;2023-12-20T11:05:17;17.02;;;6.32;;
46717;SDS011;32448;44.960;-0.698;2023-12-20T11:07:29;14.60;;;3.78;;
46717;SDS011;32448;44.960;-0.698;2023-12-20T11:10:01;13.38;;;4.28;;
46717;SDS011;32448;44.960;-0.698;2023-12-20T11:12:47;21.15;;;3.95;;
46717;SDS011;32448;44.960;-0.698;2023-12-20T11:15:18;14.98;;;2.53;;
46717;SDS011;32448;44.960;-0.698;2023-12-20T11:17:46;9.88;;;1.95;;
46717;SDS011;32448;44.960;-0.698;2023-12-20T11:20:22;14.60;;;1.90;;
46717;SDS011;32448;44.960;-0.698;2023-12-20T11:22:53;12.32;;;2.30;;
46717;SDS011;32448;44.960;-0.698;2023-12-20T11:25:22;10.02;;;1.55;;
46717;SDS011;32448;44.960;-0.698;2023-12-20T11:28:10;11.15;;;1.70;;
46717;SDS011;32448;44.960;-0.698;2023-12-20T11:33:36;11.93;;;1.73;;
46717;SDS011;32448;44.960;-0.698;2023-12-20T11:36:12;11.13;;;1.85;;
46717;SDS011;32448;44.960;-0.698;2023-12-20T11:39:15;11.95;;;2.15;;
46717;SDS011;32448;44.960;-0.698;2023-12-20T11:41:39;7.72;;;1.30;;
46717;SDS011;32448;44.960;-0.698;2023-12-20T11:44:06;10.18;;;1.35;;
46717;SDS011;32448;44.960;-0.698;2023-12-20T11:46:34;7.60;;;1.27;;
46717;SDS011;32448;44.960;-0.698;2023-12-20T11:49:02;12.43;;;1.73;;
46717;SDS011;32448;44.960;-0.698;2023-12-20T11:51:29;8.05;;;2.05;;
46717;SDS011;32448;44.960;-0.698;2023-12-20T11:53:56;9.30;;;1.73;;
46717;SDS011;32448;44.960;-0.698;2023-12-20T11:56:23;8.82;;;1.63;;
46717;SDS011;32448;44.960;-0.698;2023-12-20T11:58:50;12.10;;;2.10;;
46717;SDS011;32448;44.960;-0.698;2023-12-20T12:01:19;8.95;;;2.20;;
46717;SDS011;32448;44.960;-0.698;2023-12-20T12:03:46;8.27;;;1.60;;
46717;SDS011;32448;44.960;-0.698;2023-12-20T12:06:13;10.60;;;1.85;;
46717;SDS011;32448;44.960;-0.698;2023-12-20T12:08:40;11.65;;;2.45;;
46717;SDS011;32448;44.960;-0.698;2023-12-20T12:11:07;12.02;;;1.73;;
46717;SDS011;32448;44.960;-0.698;2023-12-20T12:13:34;7.82;;;1.45;;
46717;SDS011;32448;44.960;-0.698;2023-12-20T12:16:01;11.70;;;1.23;;
46717;SDS011;32448;44.960;-0.698;2023-12-20T12:18:28;6.20;;;1.23;;
46717;SDS011;32448;44.960;-0.698;2023-12-20T12:20:59;14.02;;;1.77;;
46717;SDS011;32448;44.960;-0.698;2023-12-20T12:23:28;10.05;;;1.10;;
46717;SDS011;32448;44.960;-0.698;2023-12-20T12:25:54;8.93;;;1.40;;
46717;SDS011;32448;44.960;-0.698;2023-12-20T12:28:25;10.13;;;1.48;;
46717;SDS011;32448;44.960;-0.698;2023-12-20T12:30:58;15.77;;;1.80;;
46717;SDS011;32448;44.960;-0.698;2023-12-20T12:33:26;9.75;;;1.48;;
46717;SDS011;32448;44.960;-0.698;2023-12-20T12:35:53;4.85;;;1.10;;
46717;SDS011;32448;44.960;-0.698;2023-12-20T12:38:21;6.55;;;1.30;;
46717;SDS011;32448;44.960;-0.698;2023-12-20T12:40:49;13.68;;;1.73;;
46717;SDS011;32448;44.960;-0.698;2023-12-20T12:43:16;8.55;;;1.17;;
46717;SDS011;32448;44.960;-0.698;2023-12-20T12:45:43;7.03;;;1.27;;
46717;SDS011;32448;44.960;-0.698;2023-12-20T12:48:10;5.95;;;1.35;;
46717;SDS011;32448;44.960;-0.698;2023-12-20T12:50:37;9.48;;;1.23;;
46717;SDS011;32448;44.960;-0.698;2023-12-20T12:53:04;6.32;;;1.33;;
46717;SDS011;32448;44.960;-0.698;2023-12-20T12:55:31;5.93;;;1.20;;
46717;SDS011;32448;44.960;-0.698;2023-12-20T12:57:58;6.40;;;1.30;;
46717;SDS011;32448;44.960;-0.698;2023-12-20T13:00:25;8.18;;;1.17;;
46717;SDS011;32448;44.960;-0.698;2023-12-20T13:02:52;5.68;;;1.05;;
46717;SDS011;32448;44.960;-0.698;2023-12-20T13:05:19;5.50;;;1.30;;
46717;SDS011;32448;44.960;-0.698;2023-12-20T13:07:46;10.27;;;1.75;;
46717;SDS011;32448;44.960;-0.698;2023-12-20T13:10:15;8.48;;;1.30;;
46717;SDS011;32448;44.960;-0.698;2023-12-20T13:12:45;7.38;;;1.25;;
46717;SDS011;32448;44.960;-0.698;2023-12-20T13:15:12;8.45;;;0.93;;
46717;SDS011;32448;44.960;-0.698;2023-12-20T13:17:39;5.68;;;1.20;;
46717;SDS011;32448;44.960;-0.698;2023-12-20T13:20:07;6.28;;;1.13;;
46717;SDS011;32448;44.960;-0.698;2023-12-20T13:22:34;5.88;;;1.10;;
46717;SDS011;32448;44.960;-0.698;2023-12-20T13:25:02;9.45;;;1.00;;
46717;SDS011;32448;44.960;-0.698;2023-12-20T13:27:32;7.18;;;1.20;;
46717;SDS011;32448;44.960;-0.698;2023-12-20T13:30:00;8.65;;;1.10;;
46717;SDS011;32448;44.960;-0.698;2023-12-20T13:32:26;12.10;;;1.70;;
46717;SDS011;32448;44.960;-0.698;2023-12-20T13:34:53;10.48;;;1.08;;
46717;SDS011;32448;44.960;-0.698;2023-12-20T13:37:20;7.60;;;1.15;;
46717;SDS011;32448;44.960;-0.698;2023-12-20T13:39:47;8.73;;;1.25;;
46717;SDS011;32448;44.960;-0.698;2023-12-20T13:42:15;5.45;;;0.90;;
46717;SDS011;32448;44.960;-0.698;2023-12-20T13:44:42;8.55;;;1.00;;
46717;SDS011;32448;44.960;-0.698;2023-12-20T13:47:08;8.57;;;1.55;;
46717;SDS011;32448;44.960;-0.698;2023-12-20T13:49:35;10.43;;;2.33;;
46717;SDS011;32448;44.960;-0.698;2023-12-20T13:52:02;7.40;;;1.50;;
46717;SDS011;32448;44.960;-0.698;2023-12-20T13:54:30;7.63;;;1.15;;
46717;SDS011;32448;44.960;-0.698;2023-12-20T13:56:57;4.72;;;1.02;;
46717;SDS011;32448;44.960;-0.698;2023-12-20T13:59:38;9.63;;;1.30;;
46717;SDS011;32448;44.960;-0.698;2023-12-20T14:02:05;6.03;;;1.00;;
46717;SDS011;32448;44.960;-0.698;2023-12-20T14:04:32;7.47;;;1.63;;
46717;SDS011;32448;44.960;-0.698;2023-12-20T14:07:09;7.00;;;1.15;;
46717;SDS011;32448;44.960;-0.698;2023-12-20T14:09:39;5.90;;;1.55;;
46717;SDS011;32448;44.960;-0.698;2023-12-20T14:12:13;8.45;;;1.10;;
46717;SDS011;32448;44.960;-0.698;2023-12-20T14:14:41;5.78;;;1.10;;
46717;SDS011;32448;44.960;-0.698;2023-12-20T14:17:07;7.50;;;1.23;;
46717;SDS011;32448;44.960;-0.698;2023-12-20T14:19:35;7.80;;;1.33;;
46717;SDS011;32448;44.960;-0.698;2023-12-20T14:22:02;9.30;;;1.45;;
46717;SDS011;32448;44.960;-0.698;2023-12-20T14:24:33;9.50;;;1.00;;
46717;SDS011;32448;44.960;-0.698;2023-12-20T14:27:01;8.27;;;1.30;;
46717;SDS011;32448;44.960;-0.698;2023-12-20T14:29:28;8.13;;;1.40;;
46717;SDS011;32448;44.960;-0.698;2023-12-20T14:31:55;8.40;;;1.73;;
46717;SDS011;32448;44.960;-0.698;2023-12-20T14:34:22;6.60;;;1.17;;
46717;SDS011;32448;44.960;-0.698;2023-12-20T14:36:51;7.50;;;1.50;;
46717;SDS011;32448;44.960;-0.698;2023-12-20T14:39:19;6.18;;;1.25;;
46717;SDS011;32448;44.960;-0.698;2023-12-20T14:41:46;5.93;;;1.30;;
46717;SDS011;32448;44.960;-0.698;2023-12-20T14:44:13;10.95;;;1.42;;
46717;SDS011;32448;44.960;-0.698;2023-12-20T14:46:39;8.32;;;1.33;;
46717;SDS011;32448;44.960;-0.698;2023-12-20T14:49:07;8.50;;;1.75;;
46717;SDS011;32448;44.960;-0.698;2023-12-20T14:51:34;9.80;;;1.50;;
46717;SDS011;32448;44.960;-0.698;2023-12-20T14:54:04;10.00;;;1.20;;
46717;SDS011;32448;44.960;-0.698;2023-12-20T14:56:34;7.07;;;1.30;;